Time;durP1;ratioP1;P1;durP2;ratioP2;P2;SDS_P1;SDS_P2;PMS_P1;PMS_P2;Temp;Humidity;BMP_temperature;BMP_pressure;BME280_temperature;BME280_humidity;BME280_pressure;Samples;Min_cycle;Max_cycle;Signal;HPM_P1;HPM_P2
2022/05/15 00:02:16;;;;;;;12.47;6.63;;;14.70;99.90;;;;;;5117909;28;20579;-66
2022/05/15 00:04:42;;;;;;;12.67;6.33;;;14.50;99.90;;;;;;5124365;28;20162;-68
2022/05/15 00:07:07;;;;;;;14.60;7.13;;;14.60;99.90;;;;;;5125190;28;20222;-69
2022/05/15 00:09:33;;;;;;;14.13;7.87;;;14.50;99.90;;;;;;5124500;28;20162;-68
2022/05/15 00:11:59;;;;;;;10.10;6.70;;;14.40;99.90;;;;;;5103115;28;20185;-69
2022/05/15 00:14:25;;;;;;;14.00;7.40;;;14.30;99.90;;;;;;5114483;28;20621;-68
2022/05/15 00:16:51;;;;;;;12.27;7.80;;;14.20;99.90;;;;;;5096729;28;20579;-70
2022/05/15 00:19:16;;;;;;;19.63;9.43;;;13.90;99.90;;;;;;5121389;28;20295;-68
2022/05/15 00:21:42;;;;;;;20.87;8.53;;;13.80;99.90;;;;;;5121682;28;20174;-69
2022/05/15 00:24:07;;;;;;;14.80;7.97;;;13.90;99.90;;;;;;5139114;27;20509;-68
2022/05/15 00:26:34;;;;;;;8.53;5.67;;;13.70;99.90;;;;;;5109930;28;20182;-71
2022/05/15 00:29:00;;;;;;;14.20;5.50;;;13.70;99.90;;;;;;5127867;28;20158;-67
2022/05/15 00:31:26;;;;;;;9.80;4.20;;;13.50;99.90;;;;;;5111738;28;20178;-68
2022/05/15 00:33:52;;;;;;;12.07;5.67;;;13.40;99.90;;;;;;5125021;28;20193;-67
2022/05/15 00:36:18;;;;;;;7.80;4.73;;;13.40;99.90;;;;;;5121418;28;20162;-68
2022/05/15 00:38:44;;;;;;;9.73;4.87;;;13.50;99.90;;;;;;5103469;28;20272;-67
2022/05/15 00:41:11;;;;;;;8.03;4.40;;;13.50;99.90;;;;;;5121368;28;20166;-68
2022/05/15 00:43:48;;;;;;;9.67;4.87;;;13.50;99.90;;;;;;5120731;28;20299;-68
2022/05/15 00:46:23;;;;;;;10.60;4.60;;;13.50;99.90;;;;;;5120823;28;20182;-68
2022/05/15 00:48:51;;;;;;;7.00;4.43;;;13.30;99.90;;;;;;5121073;28;20154;-68
2022/05/15 00:51:38;;;;;;;8.83;5.17;;;13.20;99.90;;;;;;5136388;27;20182;-68
2022/05/15 00:54:17;;;;;;;11.90;4.47;;;13.10;99.90;;;;;;5120153;28;20188;-68
2022/05/15 00:56:51;;;;;;;9.73;4.83;;;13.30;99.90;;;;;;5120286;28;20165;-68
2022/05/15 00:59:21;;;;;;;11.47;4.50;;;13.30;99.90;;;;;;5120789;28;20162;-68
2022/05/15 01:01:47;;;;;;;8.33;4.17;;;13.40;99.90;;;;;;5120805;28;20178;-68
2022/05/15 01:04:13;;;;;;;7.70;3.90;;;13.40;99.90;;;;;;5120903;28;20619;-69
2022/05/15 01:06:43;;;;;;;11.30;5.00;;;13.30;99.90;;;;;;5120525;28;20229;-68
2022/05/15 01:09:10;;;;;;;8.17;4.30;;;13.30;99.90;;;;;;5120676;28;20158;-67
2022/05/15 01:11:37;;;;;;;8.07;4.00;;;13.10;99.90;;;;;;5120591;28;20158;-67
2022/05/15 01:14:06;;;;;;;7.70;3.97;;;13.20;99.90;;;;;;5121048;28;20308;-68
2022/05/15 01:16:32;;;;;;;11.93;4.43;;;12.90;99.90;;;;;;5125996;28;20174;-67
2022/05/15 01:19:00;;;;;;;7.60;3.87;;;13.00;99.90;;;;;;5102858;28;20222;-68
2022/05/15 01:21:30;;;;;;;9.43;3.53;;;13.00;99.90;;;;;;5102355;28;20170;-67
2022/05/15 01:23:56;;;;;;;10.07;3.70;;;12.80;99.90;;;;;;5120630;28;20189;-68
2022/05/15 01:26:24;;;;;;;7.63;4.17;;;12.90;99.90;;;;;;5120470;28;20597;-68
2022/05/15 01:28:50;;;;;;;9.80;4.30;;;12.90;99.90;;;;;;5100578;28;20184;-67
2022/05/15 01:31:17;;;;;;;9.77;4.47;;;12.90;99.90;;;;;;5117655;28;20249;-68
2022/05/15 01:33:49;;;;;;;6.00;3.70;;;12.80;99.90;;;;;;5117451;28;20193;-70
2022/05/15 01:36:20;;;;;;;10.20;4.00;;;13.00;99.90;;;;;;5118420;28;20494;-70
2022/05/15 01:38:46;;;;;;;9.10;3.70;;;13.00;99.90;;;;;;5100963;28;20174;-70
2022/05/15 01:41:12;;;;;;;5.70;3.70;;;13.00;99.90;;;;;;5117319;28;20581;-69
2022/05/15 01:43:40;;;;;;;9.07;3.63;;;12.80;99.90;;;;;;5117562;28;20271;-69
2022/05/15 01:46:06;;;;;;;10.13;4.17;;;12.70;99.90;;;;;;5117067;28;20177;-69
2022/05/15 01:48:32;;;;;;;8.00;3.37;;;12.70;99.90;;;;;;5116836;28;20163;-70
2022/05/15 01:50:57;;;;;;;8.93;4.13;;;12.70;99.90;;;;;;5116884;28;20163;-70
2022/05/15 01:53:23;;;;;;;11.70;4.60;;;12.70;99.90;;;;;;5116995;28;20343;-68
2022/05/15 01:55:50;;;;;;;8.17;4.43;;;12.60;99.90;;;;;;5117514;28;20205;-69
2022/05/15 01:58:16;;;;;;;9.23;3.67;;;12.60;99.90;;;;;;5117468;28;20154;-69
2022/05/15 02:00:41;;;;;;;8.07;3.93;;;12.40;99.90;;;;;;5117767;28;20190;-69
2022/05/15 02:03:07;;;;;;;7.60;3.97;;;12.30;99.90;;;;;;5124520;28;20181;-70
2022/05/15 02:05:33;;;;;;;6.13;4.30;;;12.40;99.90;;;;;;5126190;28;20163;-67
2022/05/15 02:07:58;;;;;;;7.30;3.67;;;12.30;99.90;;;;;;5123622;28;20158;-67
2022/05/15 02:10:24;;;;;;;6.80;3.90;;;12.40;99.90;;;;;;5129150;28;20166;-67
2022/05/15 02:12:50;;;;;;;12.73;4.20;;;12.40;99.90;;;;;;5127840;28;20205;-67
2022/05/15 02:15:16;;;;;;;7.83;3.93;;;12.40;99.90;;;;;;5126816;28;20174;-68
2022/05/15 02:17:42;;;;;;;9.20;3.80;;;12.30;99.90;;;;;;5121272;28;20245;-69
2022/05/15 02:20:10;;;;;;;8.03;4.10;;;12.50;99.90;;;;;;5116613;28;20158;-69
2022/05/15 02:22:36;;;;;;;6.53;3.17;;;12.30;99.90;;;;;;5115902;28;20151;-68
2022/05/15 02:25:02;;;;;;;7.00;3.43;;;12.30;99.90;;;;;;5115968;28;20170;-68
2022/05/15 02:27:28;;;;;;;11.17;3.97;;;12.20;99.90;;;;;;5116271;28;20270;-70
2022/05/15 02:29:53;;;;;;;7.40;3.80;;;12.10;99.90;;;;;;5115760;28;20210;-69
2022/05/15 02:32:19;;;;;;;6.73;3.43;;;11.90;99.90;;;;;;5116031;28;20494;-66
2022/05/15 02:34:45;;;;;;;8.30;3.47;;;11.90;99.90;;;;;;5116136;28;20221;-68
2022/05/15 02:37:10;;;;;;;10.43;4.30;;;12.20;99.90;;;;;;5116908;28;20154;-68
2022/05/15 02:39:36;;;;;;;8.67;4.00;;;12.00;99.90;;;;;;5119640;28;20158;-67
2022/05/15 02:42:01;;;;;;;9.27;3.53;;;12.10;99.90;;;;;;5119789;28;20163;-67
2022/05/15 02:44:28;;;;;;;8.50;4.67;;;12.10;99.90;;;;;;5121976;28;20627;-68
2022/05/15 02:46:54;;;;;;;9.20;4.00;;;12.10;99.90;;;;;;5122791;28;20159;-68
2022/05/15 02:52:05;;;;;;;12.77;4.83;;;12.00;99.90;;;;;;5115353;28;20506;-67
2022/05/15 02:54:31;;;;;;;7.33;4.23;;;11.90;99.90;;;;;;5115526;28;20198;-67
2022/05/15 02:56:57;;;;;;;7.50;4.00;;;11.90;99.90;;;;;;5115588;28;20167;-68
2022/05/15 02:59:24;;;;;;;9.67;3.33;;;11.80;99.90;;;;;;5115665;28;20165;-67
2022/05/15 03:01:49;;;;;;;9.67;4.53;;;11.80;99.90;;;;;;5115810;28;20178;-66
2022/05/15 03:04:15;;;;;;;10.87;4.13;;;11.80;99.90;;;;;;5115651;28;20223;-65
2022/05/15 03:06:40;;;;;;;6.90;3.90;;;11.90;99.90;;;;;;5115121;28;20305;-66
2022/05/15 03:09:06;;;;;;;7.83;4.30;;;12.00;99.90;;;;;;5115639;28;20197;-66
2022/05/15 03:11:32;;;;;;;6.40;4.20;;;11.70;99.90;;;;;;5115092;28;20167;-66
2022/05/15 03:13:58;;;;;;;9.83;4.40;;;11.80;99.90;;;;;;5114827;28;20277;-67
2022/05/15 03:16:26;;;;;;;8.10;4.93;;;11.90;99.90;;;;;;5097148;28;20298;-66
2022/05/15 03:18:51;;;;;;;6.93;4.67;;;11.80;99.90;;;;;;5115480;28;20168;-67
2022/05/15 03:21:30;;;;;;;7.87;4.37;;;11.80;99.90;;;;;;5115452;28;20154;-65
2022/05/15 03:23:57;;;;;;;11.23;4.50;;;11.80;99.90;;;;;;5115037;28;20158;-65
2022/05/15 03:26:23;;;;;;;8.90;4.63;;;11.80;99.90;;;;;;5115022;28;20169;-67
2022/05/15 03:28:49;;;;;;;8.37;5.50;;;11.70;99.90;;;;;;5115481;28;20188;-66
2022/05/15 03:31:15;;;;;;;11.43;5.33;;;11.70;99.90;;;;;;5114766;28;20166;-68
2022/05/15 03:33:41;;;;;;;10.27;5.17;;;11.80;99.90;;;;;;5116397;28;20200;-67
2022/05/15 03:36:10;;;;;;;12.27;5.03;;;11.60;99.90;;;;;;5120822;28;20164;-67
2022/05/15 03:38:37;;;;;;;8.83;4.90;;;11.70;99.90;;;;;;5103529;28;20178;-68
2022/05/15 03:41:03;;;;;;;10.50;5.10;;;11.60;99.90;;;;;;5115823;28;20568;-67
2022/05/15 03:43:29;;;;;;;13.20;5.00;;;11.60;99.90;;;;;;5131040;27;20181;-67
2022/05/15 03:45:54;;;;;;;10.23;4.53;;;11.70;99.90;;;;;;5114551;28;20164;-68
2022/05/15 03:48:20;;;;;;;11.00;4.63;;;11.60;99.90;;;;;;5110817;27;20200;-66
2022/05/15 03:50:46;;;;;;;7.13;4.70;;;11.60;99.90;;;;;;5096363;28;20181;-67
2022/05/15 03:53:11;;;;;;;8.17;5.17;;;11.70;99.90;;;;;;5113811;28;20315;-68
2022/05/15 03:55:37;;;;;;;8.37;4.97;;;11.90;99.90;;;;;;5115435;28;20559;-66
2022/05/15 03:58:03;;;;;;;10.97;5.07;;;11.60;99.90;;;;;;5115517;28;20617;-67
2022/05/15 04:00:29;;;;;;;14.27;4.67;;;11.80;99.90;;;;;;5117071;28;20195;-67
2022/05/15 04:02:55;;;;;;;9.70;4.87;;;11.50;99.90;;;;;;5102532;28;20196;-66
2022/05/15 04:05:21;;;;;;;6.47;4.47;;;11.40;99.90;;;;;;5114559;28;20594;-67
2022/05/15 04:07:50;;;;;;;9.10;5.00;;;11.40;99.90;;;;;;5114588;28;20227;-68
2022/05/15 04:10:17;;;;;;;6.50;4.67;;;11.70;99.90;;;;;;5116230;28;20158;-66
2022/05/15 04:12:43;;;;;;;9.90;5.00;;;11.60;99.90;;;;;;5117005;28;20344;-66
2022/05/15 04:15:09;;;;;;;7.73;4.47;;;11.70;99.90;;;;;;5118216;28;20200;-66
2022/05/15 04:17:47;;;;;;;10.33;5.43;;;11.80;99.90;;;;;;5103881;28;20182;-65
2022/05/15 04:20:15;;;;;;;8.20;4.67;;;11.60;99.90;;;;;;5121661;28;20169;-66
2022/05/15 04:22:41;;;;;;;11.53;4.93;;;11.80;99.90;;;;;;5124134;28;20178;-65
2022/05/15 04:25:07;;;;;;;9.13;4.47;;;11.90;99.90;;;;;;5121793;28;20170;-65
2022/05/15 04:27:33;;;;;;;8.03;4.90;;;11.90;99.90;;;;;;5097305;28;20284;-64
2022/05/15 04:29:59;;;;;;;9.30;4.93;;;11.80;99.90;;;;;;5114121;28;20664;-66
2022/05/15 04:32:25;;;;;;;11.57;5.70;;;11.70;99.90;;;;;;5096728;28;20513;-66
2022/05/15 04:34:50;;;;;;;6.83;4.90;;;11.70;99.90;;;;;;5114775;28;20294;-65
2022/05/15 04:37:16;;;;;;;9.00;5.00;;;11.90;99.90;;;;;;5096971;28;20211;-65
2022/05/15 04:39:42;;;;;;;10.30;5.17;;;11.80;99.90;;;;;;5114824;28;20719;-66
2022/05/15 04:42:08;;;;;;;8.60;5.03;;;11.70;99.90;;;;;;5114615;28;20162;-67
2022/05/15 04:44:34;;;;;;;7.07;4.77;;;11.70;99.90;;;;;;5114849;28;20202;-65
2022/05/15 04:47:00;;;;;;;8.17;4.57;;;11.90;99.90;;;;;;5114927;28;20215;-65
2022/05/15 04:49:25;;;;;;;8.53;4.93;;;12.00;99.90;;;;;;5114874;28;20220;-66
2022/05/15 04:51:51;;;;;;;11.87;4.97;;;12.20;99.90;;;;;;5115374;28;20169;-68
2022/05/15 04:54:16;;;;;;;13.07;4.87;;;12.40;99.90;;;;;;5119760;28;20216;-66
2022/05/15 04:56:42;;;;;;;7.47;4.37;;;12.30;99.90;;;;;;5127705;28;20193;-70
2022/05/15 04:59:08;;;;;;;8.63;4.93;;;12.40;99.90;;;;;;5117441;28;20233;-66
2022/05/15 05:01:34;;;;;;;9.80;4.73;;;12.50;99.90;;;;;;5097409;28;20195;-65
2022/05/15 05:04:00;;;;;;;9.80;4.90;;;12.60;99.90;;;;;;5098703;28;20178;-66
2022/05/15 05:06:27;;;;;;;8.40;4.53;;;12.50;99.90;;;;;;5101312;28;20695;-68
2022/05/15 05:08:53;;;;;;;5.50;4.47;;;12.70;99.90;;;;;;5119180;28;20171;-69
2022/05/15 05:11:20;;;;;;;8.07;5.23;;;12.60;99.90;;;;;;5117789;28;20212;-67
2022/05/15 05:13:45;;;;;;;8.07;4.80;;;12.70;99.90;;;;;;5118204;28;20661;-67
2022/05/15 05:16:11;;;;;;;5.50;4.33;;;12.80;99.90;;;;;;5100391;28;20170;-66
2022/05/15 05:18:38;;;;;;;8.27;4.93;;;12.90;99.90;;;;;;5118768;28;20192;-67
2022/05/15 05:21:04;;;;;;;9.97;5.37;;;12.90;99.90;;;;;;5118000;28;20579;-67
2022/05/15 05:23:30;;;;;;;7.97;5.03;;;13.00;99.90;;;;;;5118489;28;20241;-66
2022/05/15 05:25:56;;;;;;;9.17;5.20;;;13.00;99.90;;;;;;5121918;28;20173;-66
2022/05/15 05:28:23;;;;;;;5.77;4.03;;;13.10;99.90;;;;;;5117354;28;20163;-68
2022/05/15 05:30:49;;;;;;;9.30;4.67;;;13.10;99.90;;;;;;5117030;28;20193;-66
2022/05/15 05:33:15;;;;;;;10.27;5.40;;;13.20;99.90;;;;;;5117539;28;20193;-65
2022/05/15 05:35:42;;;;;;;10.80;5.37;;;13.40;99.90;;;;;;5116780;28;20166;-65
2022/05/15 05:38:07;;;;;;;6.00;4.87;;;13.40;99.90;;;;;;5117053;28;20164;-66
2022/05/15 05:40:33;;;;;;;9.00;5.47;;;13.60;99.90;;;;;;5117232;28;20456;-66
2022/05/15 05:42:59;;;;;;;8.17;5.00;;;13.50;99.90;;;;;;5117261;28;20158;-66
2022/05/15 05:45:25;;;;;;;8.30;4.83;;;13.80;99.90;;;;;;5117012;28;20162;-67
2022/05/15 05:47:51;;;;;;;11.20;5.27;;;14.00;99.90;;;;;;5098648;28;20265;-68
2022/05/15 05:50:19;;;;;;;13.47;4.93;;;13.90;99.90;;;;;;5116873;28;20166;-67
2022/05/15 05:52:45;;;;;;;8.00;5.10;;;13.80;99.90;;;;;;5116975;28;20159;-67
2022/05/15 05:55:13;;;;;;;11.73;4.43;;;14.10;99.90;;;;;;5117462;28;20166;-64
2022/05/15 05:57:40;;;;;;;6.23;4.97;;;14.20;99.90;;;;;;5118246;28;20166;-65
2022/05/15 06:00:09;;;;;;;9.23;5.83;;;14.20;99.90;;;;;;5119942;28;20167;-66
2022/05/15 06:02:34;;;;;;;11.43;5.60;;;14.10;99.90;;;;;;5119557;28;20186;-66
2022/05/15 06:05:00;;;;;;;9.63;4.87;;;14.30;99.90;;;;;;5121151;28;20507;-68
2022/05/15 06:07:27;;;;;;;14.13;7.70;;;14.40;99.90;;;;;;5123062;28;20351;-66
2022/05/15 06:09:55;;;;;;;8.80;5.07;;;14.70;99.90;;;;;;5121086;28;20193;-66
2022/05/15 06:12:23;;;;;;;6.67;4.57;;;14.40;99.90;;;;;;5117873;28;20249;-66
2022/05/15 06:14:49;;;;;;;9.47;4.57;;;14.60;99.90;;;;;;5115985;28;20665;-66
2022/05/15 06:17:23;;;;;;;9.80;4.97;;;14.70;99.90;;;;;;5116690;28;20515;-66
2022/05/15 06:19:49;;;;;;;11.90;4.83;;;14.70;99.90;;;;;;5116864;28;20582;-65
2022/05/15 06:22:15;;;;;;;7.87;5.20;;;14.80;99.90;;;;;;5135691;27;20564;-65
2022/05/15 06:24:41;;;;;;;9.47;4.73;;;15.00;99.90;;;;;;5127048;28;20185;-66
2022/05/15 06:27:07;;;;;;;8.33;4.50;;;15.10;99.90;;;;;;5140702;27;20174;-69
2022/05/15 06:29:33;;;;;;;8.50;4.50;;;15.20;99.90;;;;;;5118761;28;20190;-68
2022/05/15 06:31:59;;;;;;;7.10;4.17;;;15.20;99.90;;;;;;5120488;28;20169;-68
2022/05/15 06:34:25;;;;;;;7.77;4.33;;;15.20;99.90;;;;;;5116583;28;20205;-66
2022/05/15 06:36:51;;;;;;;9.93;4.67;;;15.30;99.90;;;;;;5116474;28;20170;-66
2022/05/15 06:39:17;;;;;;;5.63;3.70;;;15.40;99.90;;;;;;5115699;28;20154;-66
2022/05/15 06:41:42;;;;;;;6.97;4.53;;;15.60;99.90;;;;;;5115552;28;20215;-67
2022/05/15 06:44:08;;;;;;;7.53;3.90;;;15.70;99.90;;;;;;5116200;28;20245;-66
2022/05/15 06:46:34;;;;;;;10.83;3.77;;;15.70;99.90;;;;;;5118356;28;20170;-66
2022/05/15 06:48:59;;;;;;;9.60;3.83;;;15.70;99.90;;;;;;5117910;28;20200;-65
2022/05/15 06:51:26;;;;;;;7.73;3.47;;;15.90;99.90;;;;;;5118699;28;20538;-66
2022/05/15 06:53:53;;;;;;;11.87;4.77;;;16.00;99.90;;;;;;5117206;28;20200;-69
2022/05/15 06:59:04;;;;;;;4.50;3.13;;;16.20;99.90;;;;;;5115188;28;20196;-68
2022/05/15 07:01:30;;;;;;;8.00;3.97;;;16.20;99.90;;;;;;5115779;28;20205;-66
2022/05/15 07:03:56;;;;;;;9.10;3.97;;;16.40;99.90;;;;;;5131809;27;20186;-67
2022/05/15 07:06:22;;;;;;;4.50;2.80;;;16.50;99.90;;;;;;5115159;28;20229;-69
2022/05/15 07:08:48;;;;;;;8.95;3.63;;;16.40;99.90;;;;;;5114601;28;20167;-65
2022/05/15 07:11:14;;;;;;;10.10;3.07;;;16.60;99.90;;;;;;5115193;28;20231;-68
2022/05/15 07:13:40;;;;;;;7.53;3.00;;;16.60;99.90;;;;;;5114910;28;20645;-66
2022/05/15 07:16:05;;;;;;;5.13;3.03;;;16.80;99.90;;;;;;5114582;28;20515;-66
2022/05/15 07:18:31;;;;;;;4.88;3.00;;;17.60;99.90;;;;;;5114711;28;20245;-65
2022/05/15 07:20:57;;;;;;;6.22;2.70;;;17.50;99.90;;;;;;5135506;27;20166;-65
2022/05/15 07:23:22;;;;;;;5.97;3.05;;;17.50;99.90;;;;;;5119670;28;20606;-67
2022/05/15 07:25:49;;;;;;;6.20;2.58;;;17.10;99.90;;;;;;5117907;28;20233;-67
2022/05/15 07:28:16;;;;;;;4.78;2.40;;;17.20;99.90;;;;;;5117664;28;20181;-68
2022/05/15 07:30:42;;;;;;;6.18;3.10;;;17.40;99.90;;;;;;5114473;28;20215;-66
2022/05/15 07:33:08;;;;;;;7.10;2.70;;;17.40;99.90;;;;;;5131633;27;20520;-65
2022/05/15 07:35:34;;;;;;;8.45;2.80;;;17.50;99.90;;;;;;5114778;28;20188;-68
2022/05/15 07:38:00;;;;;;;11.60;3.80;;;17.90;99.90;;;;;;5114564;28;20240;-66
2022/05/15 07:40:26;;;;;;;7.40;3.22;;;17.70;99.90;;;;;;5114385;28;20605;-67
2022/05/15 07:42:52;;;;;;;4.82;3.25;;;17.70;99.90;;;;;;5130702;27;20193;-67
2022/05/15 07:45:17;;;;;;;8.57;4.57;;;17.50;99.90;;;;;;5115687;28;20173;-66
2022/05/15 07:47:43;;;;;;;12.25;7.55;;;17.60;99.90;;;;;;5116558;28;20158;-67
2022/05/15 07:50:11;;;;;;;7.05;4.40;;;17.70;99.90;;;;;;5120166;28;20624;-68
2022/05/15 07:52:37;;;;;;;10.82;4.72;;;17.70;99.90;;;;;;5117117;28;20174;-67
2022/05/15 07:55:06;;;;;;;7.93;3.95;;;17.60;99.90;;;;;;5115855;28;20265;-66
2022/05/15 07:57:34;;;;;;;19.02;7.20;;;17.90;99.90;;;;;;5116795;28;20447;-66
2022/05/15 08:00:00;;;;;;;11.68;3.45;;;18.00;99.90;;;;;;5118987;28;20194;-66
2022/05/15 08:02:26;;;;;;;8.48;3.70;;;18.10;99.90;;;;;;5130102;27;20174;-66
2022/05/15 08:10:20;;;;;;;13.05;3.30;;;18.10;99.90;;;;;;5113402;28;20554;-65
2022/05/15 08:12:46;;;;;;;7.15;2.90;;;18.60;99.90;;;;;;5116266;28;20313;-66
2022/05/15 08:15:13;;;;;;;8.68;3.30;;;18.70;99.90;;;;;;5113584;28;20165;-66
2022/05/15 08:17:39;;;;;;;6.43;3.15;;;18.80;99.90;;;;;;5113445;28;20155;-66
2022/05/15 08:25:37;;;;;;;9.07;3.03;;;19.30;99.80;;;;;;5113092;28;20165;-67
2022/05/15 08:28:03;;;;;;;4.70;2.80;;;19.40;98.80;;;;;;5113003;28;20162;-66
2022/05/15 08:30:29;;;;;;;5.28;2.65;;;19.10;98.30;;;;;;5113280;28;20170;-67
2022/05/15 08:32:55;;;;;;;4.55;2.42;;;18.70;99.80;;;;;;5114101;28;20181;-67
2022/05/15 08:35:20;;;;;;;4.10;2.70;;;18.80;99.40;;;;;;5113189;28;20178;-66
2022/05/15 08:37:46;;;;;;;3.97;2.28;;;19.30;99.60;;;;;;5113549;28;20154;-69
2022/05/15 08:40:12;;;;;;;7.20;2.33;;;19.50;96.10;;;;;;5117110;28;20216;-70
2022/05/15 08:42:55;;;;;;;6.32;2.55;;;19.30;95.20;;;;;;5117457;28;20245;-67
2022/05/15 08:45:27;;;;;;;5.85;2.50;;;19.20;95.90;;;;;;5116796;28;20237;-68
2022/05/15 08:48:02;;;;;;;6.15;1.92;;;19.50;95.00;;;;;;5117603;28;20170;-68
2022/05/15 08:50:33;;;;;;;9.82;3.05;;;19.50;94.10;;;;;;5116975;28;20183;-68
2022/05/15 08:53:06;;;;;;;6.93;2.65;;;19.90;93.70;;;;;;5116687;28;20190;-69
2022/05/15 08:55:48;;;;;;;10.35;3.00;;;20.10;93.10;;;;;;5116588;28;20158;-68
2022/05/15 08:58:35;;;;;;;7.93;3.15;;;19.80;93.20;;;;;;5116489;28;20188;-70
2022/05/15 09:01:05;;;;;;;5.20;2.67;;;19.90;91.80;;;;;;5116783;28;20248;-69
2022/05/15 09:03:35;;;;;;;5.65;3.25;;;19.40;92.90;;;;;;5118989;28;20211;-68
2022/05/15 09:06:22;;;;;;;11.07;3.67;;;19.60;93.70;;;;;;5119383;28;20629;-67
2022/05/15 09:09:18;;;;;;;6.88;3.40;;;19.90;92.10;;;;;;5116629;28;20163;-69
2022/05/15 09:12:00;;;;;;;5.05;2.70;;;20.30;91.90;;;;;;5116569;28;20158;-67
2022/05/15 09:15:00;;;;;;;8.48;2.80;;;20.50;91.00;;;;;;5097484;28;20254;-68
2022/05/15 09:17:41;;;;;;;6.80;2.40;;;20.50;90.50;;;;;;5116514;28;20159;-68
2022/05/15 09:20:12;;;;;;;6.90;2.58;;;20.40;89.10;;;;;;5115385;28;20157;-69
2022/05/15 09:22:43;;;;;;;9.52;2.45;;;20.80;89.60;;;;;;5115636;28;20633;-66
2022/05/15 09:25:21;;;;;;;29.45;16.58;;;21.00;90.30;;;;;;5115805;28;20273;-68
2022/05/15 09:27:57;;;;;;;12.27;4.75;;;21.40;92.30;;;;;;5115655;28;20159;-69
2022/05/15 09:30:23;;;;;;;5.75;2.55;;;21.70;94.10;;;;;;5115650;28;20166;-69
2022/05/15 09:32:56;;;;;;;6.18;2.60;;;21.60;81.90;;;;;;5119186;28;20280;-66
2022/05/15 09:35:41;;;;;;;7.07;3.88;;;21.10;81.70;;;;;;5120330;28;20155;-68
2022/05/15 09:44:02;;;;;;;7.20;2.42;;;20.60;87.30;;;;;;5115394;28;20215;-69
2022/05/15 09:46:29;;;;;;;9.20;2.45;;;20.60;85.70;;;;;;5115633;28;20176;-68
2022/05/15 09:49:12;;;;;;;8.50;3.38;;;20.80;83.20;;;;;;5115400;28;20162;-68
2022/05/15 09:51:46;;;;;;;6.72;3.08;;;21.10;83.80;;;;;;5130569;27;20166;-68
2022/05/15 09:54:36;;;;;;;11.80;2.83;;;21.50;82.20;;;;;;5115188;28;20633;-69
2022/05/15 09:57:26;;;;;;;6.03;2.38;;;21.80;81.20;;;;;;5108860;28;20182;-68
2022/05/15 10:00:00;;;;;;;5.63;2.50;;;21.40;79.10;;;;;;5117462;28;20154;-68
2022/05/15 10:02:39;;;;;;;11.82;2.72;;;21.70;78.80;;;;;;5116226;28;20272;-68
2022/05/15 10:05:30;;;;;;;5.03;2.00;;;21.50;77.00;;;;;;5097025;28;20182;-68
2022/05/15 10:08:04;;;;;;;5.53;2.55;;;21.50;75.80;;;;;;5115246;28;20230;-70
2022/05/15 10:10:56;;;;;;;8.82;2.75;;;21.70;75.70;;;;;;5115637;28;20261;-68
2022/05/15 10:13:36;;;;;;;6.40;2.25;;;21.40;73.30;;;;;;5114953;28;20217;-68
2022/05/15 10:16:23;;;;;;;6.93;2.60;;;21.40;73.80;;;;;;5115555;28;20206;-68
2022/05/15 10:19:13;;;;;;;24.15;9.98;;;21.60;73.50;;;;;;5115415;28;20215;-72
2022/05/15 10:21:40;;;;;;;14.52;6.75;;;22.00;78.00;;;;;;5131410;27;20544;-73
2022/05/15 10:24:18;;;;;;;6.80;2.78;;;22.10;78.50;;;;;;5115300;28;20166;-70
2022/05/15 10:26:46;;;;;;;6.50;2.05;;;22.30;71.30;;;;;;5115364;28;20158;-70
2022/05/15 10:29:23;;;;;;;5.95;2.28;;;22.20;70.40;;;;;;5130773;27;20171;-70
2022/05/15 10:31:54;;;;;;;4.28;2.17;;;22.30;68.20;;;;;;5115376;28;20498;-71
2022/05/15 10:34:25;;;;;;;4.32;2.42;;;22.30;67.80;;;;;;5115035;28;20193;-70
2022/05/15 10:37:18;;;;;;;9.05;2.60;;;22.10;67.30;;;;;;5115681;28;20162;-70
2022/05/15 10:40:03;;;;;;;8.00;2.38;;;22.30;65.30;;;;;;5115621;28;20245;-69
2022/05/15 10:43:02;;;;;;;4.90;2.58;;;22.20;65.70;;;;;;5121410;28;20236;-70
2022/05/15 10:45:48;;;;;;;7.88;2.90;;;22.30;64.90;;;;;;5120967;28;20166;-70
2022/05/15 10:48:32;;;;;;;7.43;3.00;;;22.20;65.10;;;;;;5115068;28;20170;-68
2022/05/15 10:50:57;;;;;;;7.47;2.20;;;22.30;65.30;;;;;;5114615;28;20146;-69
2022/05/15 10:59:45;;;;;;;6.20;2.50;;;22.90;63.90;;;;;;5115150;28;20173;-69
2022/05/15 11:02:39;;;;;;;7.45;2.67;;;22.80;61.80;;;;;;5109746;27;20585;-68
2022/05/15 11:05:09;;;;;;;13.85;7.93;;;22.90;61.60;;;;;;5130112;27;20186;-68
2022/05/15 11:08:12;;;;;;;8.27;2.50;;;22.90;61.30;;;;;;5130793;27;20315;-69
2022/05/15 11:10:49;;;;;;;8.43;2.80;;;22.90;60.50;;;;;;5134322;27;20187;-68
2022/05/15 11:13:35;;;;;;;6.60;2.92;;;22.60;61.20;;;;;;5134235;27;20208;-69
2022/05/15 11:16:23;;;;;;;7.90;2.15;;;23.20;61.80;;;;;;5134572;27;20245;-69
2022/05/15 11:19:11;;;;;;;9.20;3.00;;;22.80;59.70;;;;;;5134526;27;20157;-68
2022/05/15 11:22:15;;;;;;;10.55;3.08;;;23.10;61.40;;;;;;5150827;27;20185;-70
2022/05/15 11:25:21;;;;;;;6.22;2.45;;;22.90;58.80;;;;;;5124571;27;20268;-67
2022/05/15 11:27:49;;;;;;;11.75;2.20;;;22.70;60.40;;;;;;5135043;27;20177;-68
2022/05/15 11:30:30;;;;;;;6.97;2.90;;;23.10;60.00;;;;;;5135482;27;20496;-67
2022/05/15 11:32:57;;;;;;;3.60;2.17;;;23.40;60.30;;;;;;5135741;27;20169;-67
2022/05/15 11:35:45;;;;;;;8.55;3.08;;;23.40;60.20;;;;;;5135399;27;20169;-68
2022/05/15 11:38:28;;;;;;;5.10;2.58;;;23.10;59.60;;;;;;5128016;27;20531;-67
2022/05/15 11:40:54;;;;;;;5.38;2.30;;;23.20;61.00;;;;;;5140225;27;20169;-67
2022/05/15 11:43:26;;;;;;;6.03;2.35;;;23.20;59.00;;;;;;5138434;27;20173;-67
2022/05/15 11:46:07;;;;;;;7.35;3.17;;;23.30;59.90;;;;;;5136481;27;20166;-67
2022/05/15 11:48:39;;;;;;;4.82;1.98;;;23.70;59.50;;;;;;5151562;27;20302;-69
2022/05/15 11:51:14;;;;;;;9.52;4.10;;;23.50;58.70;;;;;;5134999;27;20189;-67
2022/05/15 11:53:54;;;;;;;7.60;2.45;;;23.80;58.70;;;;;;5135123;27;20196;-68
2022/05/15 11:56:27;;;;;;;8.18;2.75;;;23.70;57.90;;;;;;5135537;27;20473;-67
2022/05/15 11:58:59;;;;;;;5.55;2.08;;;23.80;57.30;;;;;;5135102;27;20187;-69
2022/05/15 12:01:25;;;;;;;4.13;2.17;;;23.10;56.60;;;;;;5134421;27;20504;-68
2022/05/15 12:03:55;;;;;;;3.38;1.85;;;23.30;57.90;;;;;;5134841;27;20166;-68
2022/05/15 12:06:44;;;;;;;4.90;2.13;;;23.30;58.00;;;;;;5146312;27;20220;-69
2022/05/15 12:09:16;;;;;;;4.05;2.03;;;23.20;57.60;;;;;;5134347;27;20196;-68
2022/05/15 12:11:53;;;;;;;4.80;2.60;;;23.10;58.50;;;;;;5134322;27;20150;-68
2022/05/15 12:14:22;;;;;;;5.63;2.35;;;23.50;58.10;;;;;;5134226;27;20196;-69
2022/05/15 12:17:02;;;;;;;5.20;2.65;;;23.30;57.10;;;;;;5134508;27;20154;-69
2022/05/15 12:19:37;;;;;;;5.85;2.42;;;23.20;57.80;;;;;;5134400;28;20176;-68
2022/05/15 12:22:10;;;;;;;8.60;2.60;;;23.30;57.40;;;;;;5135979;28;20165;-67
2022/05/15 12:24:38;;;;;;;7.55;2.20;;;23.90;57.20;;;;;;5133981;28;20200;-68
2022/05/15 12:27:27;;;;;;;4.10;2.53;;;24.00;56.00;;;;;;5115856;28;20601;-69
2022/05/15 12:30:14;;;;;;;3.58;1.88;;;23.60;56.70;;;;;;5134228;28;20168;-69
2022/05/15 12:32:51;;;;;;;4.63;2.35;;;23.80;56.10;;;;;;5134607;28;20157;-68
2022/05/15 12:35:24;;;;;;;6.15;1.95;;;23.30;55.80;;;;;;5134555;28;20219;-68
2022/05/15 12:38:02;;;;;;;8.55;2.38;;;23.70;55.60;;;;;;5134766;28;20170;-69
2022/05/15 12:40:43;;;;;;;4.28;2.17;;;23.70;55.30;;;;;;5134038;28;20166;-69
2022/05/15 12:43:40;;;;;;;5.10;2.13;;;23.90;54.90;;;;;;5138313;28;20620;-68
2022/05/15 12:46:07;;;;;;;6.32;1.85;;;24.00;53.40;;;;;;5119485;28;20189;-68
2022/05/15 12:48:38;;;;;;;8.35;3.35;;;23.70;53.60;;;;;;5135000;28;20161;-67
2022/05/15 12:51:08;;;;;;;3.85;1.88;;;24.00;54.10;;;;;;5134343;28;20202;-69
2022/05/15 12:53:44;;;;;;;2.60;2.00;;;24.20;52.50;;;;;;5134272;28;20201;-68
2022/05/15 12:56:17;;;;;;;5.07;2.00;;;24.00;54.40;;;;;;5134192;28;20165;-67
2022/05/15 12:58:48;;;;;;;6.63;2.15;;;24.10;55.40;;;;;;5116162;28;20170;-67
2022/05/15 13:01:16;;;;;;;6.63;2.78;;;24.20;53.80;;;;;;5116492;28;20173;-67
2022/05/15 13:03:49;;;;;;;5.72;1.95;;;24.10;51.70;;;;;;5136780;28;20205;-68
2022/05/15 13:06:19;;;;;;;7.47;2.90;;;24.00;50.90;;;;;;5137509;28;20516;-68
2022/05/15 13:08:50;;;;;;;4.50;1.70;;;24.10;51.00;;;;;;5136292;28;20286;-69
2022/05/15 13:11:21;;;;;;;4.10;1.90;;;24.00;50.20;;;;;;5134914;28;20216;-68
2022/05/15 13:13:49;;;;;;;10.00;5.68;;;23.80;50.50;;;;;;5138977;28;20227;-68
2022/05/15 13:16:20;;;;;;;10.93;2.30;;;24.50;51.40;;;;;;5143236;28;20177;-69
2022/05/15 13:18:49;;;;;;;3.92;1.63;;;24.30;48.70;;;;;;5144919;28;20221;-68
2022/05/15 13:21:37;;;;;;;6.95;1.50;;;24.20;49.40;;;;;;5141462;28;20165;-68
2022/05/15 13:24:06;;;;;;;4.57;1.75;;;24.10;49.80;;;;;;5137388;27;20168;-67
2022/05/15 13:26:48;;;;;;;6.35;1.75;;;24.60;49.10;;;;;;5138793;27;20236;-68
2022/05/15 13:29:26;;;;;;;4.35;1.90;;;24.20;48.00;;;;;;5141798;27;20157;-69
2022/05/15 13:31:55;;;;;;;9.07;1.73;;;23.70;48.70;;;;;;5142758;27;20209;-68